createdAt,value
2023-03-19T00:02:28.803Z,100.00
2023-03-19T00:05:54.606Z,100.00
2023-03-19T00:09:20.230Z,100.00
2023-03-19T00:12:44.065Z,100.00
2023-03-19T00:16:08.859Z,100.00
2023-03-19T00:19:32.833Z,100.00
2023-03-19T00:22:56.780Z,100.00
2023-03-19T00:26:20.784Z,100.00
2023-03-19T00:29:44.756Z,100.00
2023-03-19T00:33:09.427Z,100.00
2023-03-19T00:36:33.619Z,100.00
2023-03-19T00:39:57.538Z,100.00
2023-03-19T00:43:21.440Z,100.00
2023-03-19T00:46:46.066Z,100.00
2023-03-19T00:50:11.022Z,100.00
2023-03-19T00:53:42.320Z,100.00
2023-03-19T00:57:06.560Z,100.00
2023-03-19T01:00:30.479Z,100.00
2023-03-19T01:03:54.349Z,100.00
2023-03-19T01:07:19.943Z,100.00
2023-03-19T01:10:44.889Z,100.00
2023-03-19T01:14:09.196Z,100.00
2023-03-19T01:17:33.115Z,100.00
2023-03-19T01:20:56.967Z,100.00
2023-03-19T01:24:21.003Z,100.00
2023-03-19T01:27:49.499Z,100.00
2023-03-19T01:31:13.639Z,100.00
2023-03-19T01:34:58.371Z,100.00
2023-03-19T01:38:22.272Z,100.00
2023-03-19T01:41:48.723Z,100.00
2023-03-19T01:45:39.202Z,100.00
2023-03-19T01:49:28.053Z,100.00
2023-03-19T01:53:13.272Z,100.00
2023-03-19T01:57:03.621Z,100.00
2023-03-19T02:00:47.841Z,100.00
2023-03-19T02:04:12.120Z,100.00
2023-03-19T02:07:39.628Z,100.00
2023-03-19T02:11:03.945Z,100.00
2023-03-19T02:14:27.968Z,100.00
2023-03-19T02:17:53.258Z,100.00
2023-03-19T02:21:19.167Z,100.00
2023-03-19T02:25:07.764Z,100.00
2023-03-19T02:28:39.572Z,100.00
2023-03-19T02:32:04.086Z,100.00
2023-03-19T02:35:31.587Z,100.00
2023-03-19T02:38:58.684Z,100.00
2023-03-19T02:42:25.432Z,100.00
2023-03-19T02:45:49.795Z,100.00
2023-03-19T02:49:13.690Z,100.00
2023-03-19T02:52:37.925Z,100.00
2023-03-19T02:56:01.852Z,100.00
2023-03-19T02:59:25.838Z,100.00
2023-03-19T03:02:49.912Z,100.00
2023-03-19T03:06:14.318Z,100.00
2023-03-19T03:09:38.102Z,100.00
2023-03-19T03:13:02.170Z,100.00
2023-03-19T03:16:27.431Z,100.00
2023-03-19T03:19:51.279Z,100.00
2023-03-19T03:23:15.067Z,100.00
2023-03-19T03:26:39.808Z,100.00
2023-03-19T03:30:04.390Z,100.00
2023-03-19T03:33:31.779Z,100.00
2023-03-19T03:36:55.897Z,100.00
2023-03-19T03:40:20.543Z,100.00
2023-03-19T03:43:44.633Z,100.00
2023-03-19T03:47:09.013Z,100.00
2023-03-19T03:50:33.004Z,100.00
2023-03-19T03:54:01.331Z,100.00
2023-03-19T03:57:26.249Z,100.00
2023-03-19T04:00:51.188Z,100.00
2023-03-19T04:04:15.600Z,100.00
2023-03-19T04:07:39.957Z,100.00
2023-03-19T04:11:08.852Z,100.00
2023-03-19T04:14:32.992Z,100.00
2023-03-19T04:17:56.983Z,100.00
2023-03-19T04:21:21.404Z,100.00
2023-03-19T04:24:45.414Z,100.00
2023-03-19T04:28:09.809Z,100.00
2023-03-19T04:31:33.641Z,100.00
2023-03-19T04:34:58.665Z,100.00
2023-03-19T04:38:23.037Z,100.00
2023-03-19T04:41:47.264Z,100.00
2023-03-19T04:45:27.433Z,100.00
2023-03-19T04:48:51.785Z,100.00
2023-03-19T04:52:15.845Z,100.00
2023-03-19T04:55:40.018Z,100.00
2023-03-19T04:59:07.201Z,100.00
2023-03-19T05:02:31.599Z,100.00
2023-03-19T05:05:55.703Z,100.00
2023-03-19T05:09:20.215Z,100.00
2023-03-19T05:12:44.395Z,100.00
2023-03-19T05:16:09.577Z,100.00
2023-03-19T05:19:34.177Z,100.00
2023-03-19T05:22:58.661Z,100.00
2023-03-19T05:26:32.366Z,100.00
2023-03-19T05:30:18.463Z,100.00
2023-03-19T05:33:54.607Z,100.00
2023-03-19T05:37:19.053Z,100.00
2023-03-19T05:40:48.293Z,100.00
2023-03-19T05:44:21.527Z,100.00
2023-03-19T05:47:53.390Z,100.00
2023-03-19T05:51:17.608Z,100.00
2023-03-19T05:54:44.476Z,100.00
2023-03-19T05:58:26.549Z,100.00
2023-03-19T06:01:51.695Z,100.00
2023-03-19T06:05:16.762Z,100.00
2023-03-19T06:08:41.020Z,99.77
2023-03-19T06:12:19.839Z,97.94
2023-03-19T06:16:12.200Z,96.28
2023-03-19T06:19:45.256Z,94.57
2023-03-19T06:23:09.465Z,92.64
2023-03-19T06:26:33.492Z,91.05
2023-03-19T06:29:59.757Z,90.02
2023-03-19T06:33:32.134Z,89.73
2023-03-19T06:36:56.113Z,89.01
2023-03-19T06:40:20.561Z,88.03
2023-03-19T06:43:44.852Z,88.53
2023-03-19T06:47:09.746Z,87.91
2023-03-19T06:50:34.909Z,86.87
2023-03-19T06:53:59.067Z,85.65
2023-03-19T06:57:22.956Z,85.37
2023-03-19T07:00:47.306Z,83.86
2023-03-19T07:04:11.638Z,81.55
2023-03-19T07:07:35.710Z,79.89
2023-03-19T07:11:07.830Z,79.88
2023-03-19T07:14:31.854Z,77.63
2023-03-19T07:17:55.836Z,76.98
2023-03-19T07:21:20.041Z,75.05
2023-03-19T07:24:44.181Z,75.65
2023-03-19T07:28:08.268Z,74.88
2023-03-19T07:31:32.358Z,73.84
2023-03-19T07:34:56.975Z,73.51
2023-03-19T07:38:20.876Z,72.91
2023-03-19T07:41:47.773Z,72.11
2023-03-19T07:45:12.561Z,71.85
2023-03-19T07:48:37.011Z,72.17
2023-03-19T07:52:00.958Z,70.80
2023-03-19T07:55:25.265Z,70.13
2023-03-19T07:58:49.127Z,70.21
2023-03-19T08:02:13.984Z,69.99
2023-03-19T08:05:37.913Z,70.05
2023-03-19T08:09:02.215Z,69.34
2023-03-19T08:12:27.146Z,69.34
2023-03-19T08:15:51.427Z,68.66
2023-03-19T08:19:16.948Z,68.50
2023-03-19T08:22:41.946Z,67.92
2023-03-19T08:26:06.347Z,67.68
2023-03-19T08:29:30.626Z,65.84
2023-03-19T08:32:54.486Z,65.40
2023-03-19T08:36:18.711Z,63.41
2023-03-19T08:39:43.233Z,62.23
2023-03-19T08:43:07.866Z,61.73
2023-03-19T08:46:33.632Z,62.27
2023-03-19T08:49:57.884Z,61.39
2023-03-19T08:53:22.620Z,60.72
2023-03-19T08:56:46.881Z,60.71
2023-03-19T09:00:11.525Z,61.17
2023-03-19T09:03:35.848Z,60.67
2023-03-19T09:06:59.839Z,59.51
2023-03-19T09:10:23.670Z,56.80
2023-03-19T09:13:47.676Z,57.62
2023-03-19T09:17:13.538Z,56.53
2023-03-19T09:20:37.781Z,56.23
2023-03-19T09:24:01.801Z,54.64
2023-03-19T09:27:25.682Z,54.37
2023-03-19T09:30:51.799Z,54.10
2023-03-19T09:34:16.605Z,54.32
2023-03-19T09:37:40.701Z,51.35
2023-03-19T09:41:10.806Z,51.31
2023-03-19T09:44:41.071Z,51.26
2023-03-19T09:48:18.220Z,51.78
2023-03-19T09:51:51.557Z,50.75
2023-03-19T09:55:24.478Z,50.60
2023-03-19T09:58:48.850Z,50.17
2023-03-19T10:02:41.467Z,48.75
2023-03-19T10:06:14.604Z,47.65
2023-03-19T10:10:01.501Z,47.98
2023-03-19T10:13:39.857Z,48.60
2023-03-19T10:17:06.363Z,46.76
2023-03-19T10:20:49.258Z,46.46
2023-03-19T10:24:23.913Z,44.98
2023-03-19T10:27:55.387Z,45.82
2023-03-19T10:31:30.499Z,42.44
2023-03-19T10:34:54.925Z,42.09
2023-03-19T10:38:25.036Z,43.11
2023-03-19T10:41:51.954Z,43.33
2023-03-19T10:45:32.475Z,44.48
2023-03-19T10:48:58.880Z,44.94
2023-03-19T10:52:28.239Z,44.13
2023-03-19T10:55:57.011Z,42.76
2023-03-19T10:59:26.938Z,41.48
2023-03-19T11:02:54.469Z,40.95
2023-03-19T11:06:25.013Z,40.96
2023-03-19T11:09:52.787Z,40.84
2023-03-19T11:13:25.472Z,39.86
2023-03-19T11:17:08.206Z,40.08
2023-03-19T11:20:35.146Z,38.71
2023-03-19T11:24:04.657Z,39.94
2023-03-19T11:27:37.600Z,39.23
2023-03-19T11:31:21.138Z,39.35
2023-03-19T11:35:18.759Z,38.56
2023-03-19T11:39:07.933Z,38.42
2023-03-19T11:43:01.619Z,39.21
2023-03-19T11:46:34.959Z,38.72
2023-03-19T11:50:18.306Z,39.24
2023-03-19T11:53:54.515Z,39.26
2023-03-19T11:57:24.638Z,38.66
2023-03-19T12:00:52.322Z,38.39
2023-03-19T12:05:00.327Z,36.42
2023-03-19T12:08:46.582Z,36.22
2023-03-19T12:12:28.036Z,35.91
2023-03-19T12:16:22.354Z,36.58
2023-03-19T12:20:23.747Z,34.61
2023-03-19T12:24:04.572Z,33.90
2023-03-19T12:27:38.171Z,34.65
2023-03-19T12:31:17.518Z,34.99
2023-03-19T12:34:44.670Z,33.88
2023-03-19T12:38:32.554Z,33.89
2023-03-19T12:41:59.596Z,35.28
2023-03-19T12:45:23.537Z,35.49
2023-03-19T12:48:53.239Z,35.11
2023-03-19T12:52:30.225Z,35.35
2023-03-19T12:56:00.216Z,33.71
2023-03-19T12:59:44.376Z,32.99
2023-03-19T13:03:18.613Z,32.83
2023-03-19T13:06:50.981Z,33.74
2023-03-19T13:10:20.745Z,34.47
2023-03-19T13:13:59.581Z,35.51
2023-03-19T13:17:55.925Z,34.99
2023-03-19T13:21:24.773Z,35.74
2023-03-19T13:24:50.972Z,36.45
2023-03-19T13:28:28.245Z,36.34
2023-03-19T13:31:53.347Z,35.93
2023-03-19T13:35:20.173Z,36.28
2023-03-19T13:38:50.205Z,36.71
2023-03-19T13:42:38.442Z,37.87
2023-03-19T13:46:05.979Z,38.74
2023-03-19T13:49:36.809Z,38.89
2023-03-19T13:53:22.940Z,39.27
2023-03-19T13:57:02.566Z,38.70
2023-03-19T14:00:46.793Z,38.00
2023-03-19T14:04:29.711Z,38.65
2023-03-19T14:07:56.473Z,37.52
2023-03-19T14:11:25.328Z,37.55
2023-03-19T14:15:03.295Z,37.41
2023-03-19T14:18:30.581Z,37.64
2023-03-19T14:22:00.425Z,37.35
2023-03-19T14:25:29.567Z,36.51
2023-03-19T14:28:59.385Z,35.19
2023-03-19T14:32:31.435Z,36.20
2023-03-19T14:35:55.713Z,37.20
2023-03-19T14:39:27.551Z,36.70
2023-03-19T14:43:04.268Z,36.09
2023-03-19T14:46:53.199Z,36.93
2023-03-19T14:50:42.285Z,37.52
2023-03-19T14:54:29.641Z,37.85
2023-03-19T14:57:57.697Z,37.98
2023-03-19T15:01:23.246Z,38.35
2023-03-19T15:04:49.951Z,38.48
2023-03-19T15:08:14.725Z,38.73
2023-03-19T15:11:54.128Z,37.94
2023-03-19T15:15:32.288Z,38.14
2023-03-19T15:18:56.356Z,38.72
2023-03-19T15:22:31.447Z,39.00
2023-03-19T15:26:01.949Z,39.17
2023-03-19T15:29:34.097Z,39.11
2023-03-19T15:33:12.140Z,39.12
2023-03-19T15:36:41.638Z,38.95
2023-03-19T15:40:11.912Z,39.17
2023-03-19T15:43:39.194Z,38.83
2023-03-19T15:47:06.955Z,39.47
2023-03-19T15:50:35.100Z,40.06
2023-03-19T15:54:01.280Z,40.68
2023-03-19T15:57:26.688Z,40.82
2023-03-19T16:00:53.981Z,41.54
2023-03-19T16:04:26.915Z,41.85
2023-03-19T16:08:23.414Z,41.91
2023-03-19T16:11:47.657Z,42.13
2023-03-19T16:15:36.622Z,42.27
2023-03-19T16:19:00.600Z,42.81
2023-03-19T16:22:29.159Z,43.49
2023-03-19T16:25:53.213Z,43.78
2023-03-19T16:29:29.209Z,44.47
2023-03-19T16:33:00.701Z,45.26
2023-03-19T16:36:28.511Z,45.69
2023-03-19T16:40:00.881Z,46.03
2023-03-19T16:43:34.375Z,46.52
2023-03-19T16:46:58.526Z,47.02
2023-03-19T16:50:29.274Z,47.18
2023-03-19T16:53:53.347Z,47.67
2023-03-19T16:57:18.651Z,47.98
2023-03-19T17:00:44.413Z,48.21
2023-03-19T17:04:17.621Z,48.47
2023-03-19T17:07:42.350Z,48.67
2023-03-19T17:11:07.261Z,48.88
2023-03-19T17:14:32.329Z,49.45
2023-03-19T17:17:57.320Z,49.72
2023-03-19T17:21:26.291Z,50.16
2023-03-19T17:24:50.354Z,50.98
2023-03-19T17:28:14.238Z,51.53
2023-03-19T17:31:38.457Z,52.07
2023-03-19T17:35:02.432Z,51.95
2023-03-19T17:38:35.457Z,52.46
2023-03-19T17:42:00.431Z,52.65
2023-03-19T17:45:29.978Z,53.03
2023-03-19T17:48:55.880Z,54.48
2023-03-19T17:52:20.465Z,54.35
2023-03-19T17:55:44.345Z,54.20
2023-03-19T17:59:08.465Z,55.07
2023-03-19T18:02:33.541Z,55.89
2023-03-19T18:05:58.388Z,57.01
2023-03-19T18:09:25.802Z,57.90
2023-03-19T18:12:50.594Z,58.50
2023-03-19T18:16:29.101Z,58.85
2023-03-19T18:19:54.547Z,59.94
2023-03-19T18:23:19.018Z,60.80
2023-03-19T18:26:42.857Z,61.37
2023-03-19T18:30:07.212Z,62.21
2023-03-19T18:33:33.174Z,63.87
2023-03-19T18:36:57.819Z,64.78
2023-03-19T18:40:24.803Z,66.43
2023-03-19T18:43:48.887Z,66.98
2023-03-19T18:47:16.951Z,66.95
2023-03-19T18:50:41.138Z,66.39
2023-03-19T18:54:05.271Z,67.27
2023-03-19T18:57:29.180Z,67.65
2023-03-19T19:00:53.362Z,68.58
2023-03-19T19:04:18.171Z,69.99
2023-03-19T19:07:42.475Z,71.06
2023-03-19T19:11:07.952Z,71.95
2023-03-19T19:14:32.276Z,72.21
2023-03-19T19:17:56.592Z,73.36
2023-03-19T19:21:20.555Z,74.06
2023-03-19T19:24:48.657Z,75.10
2023-03-19T19:28:27.829Z,74.21
2023-03-19T19:31:52.147Z,74.32
2023-03-19T19:35:23.128Z,73.45
2023-03-19T19:38:48.538Z,72.48
2023-03-19T19:42:16.916Z,73.22
2023-03-19T19:45:41.969Z,75.63
2023-03-19T19:49:06.413Z,76.40
2023-03-19T19:52:31.846Z,77.00
2023-03-19T19:55:56.225Z,78.32
2023-03-19T19:59:22.993Z,78.60
2023-03-19T20:02:48.279Z,78.85
2023-03-19T20:06:13.368Z,78.52
2023-03-19T20:09:37.246Z,79.29
2023-03-19T20:13:02.616Z,81.21
2023-03-19T20:16:27.871Z,82.26
2023-03-19T20:19:52.574Z,83.43
2023-03-19T20:23:18.156Z,83.71
2023-03-19T20:26:42.900Z,84.69
2023-03-19T20:30:10.549Z,84.91
2023-03-19T20:33:34.809Z,84.74
2023-03-19T20:36:58.712Z,85.17
2023-03-19T20:40:25.274Z,86.13
2023-03-19T20:43:50.600Z,86.70
2023-03-19T20:47:19.554Z,86.37
2023-03-19T20:50:44.885Z,87.32
2023-03-19T20:54:09.188Z,88.28
2023-03-19T20:57:33.785Z,88.95
2023-03-19T21:00:59.049Z,89.61
2023-03-19T21:04:23.880Z,90.50
2023-03-19T21:07:50.484Z,91.04
2023-03-19T21:11:17.876Z,91.39
2023-03-19T21:14:42.495Z,93.07
2023-03-19T21:18:06.399Z,92.33
2023-03-19T21:21:35.582Z,92.74
2023-03-19T21:25:06.198Z,93.01
2023-03-19T21:28:35.394Z,92.74
2023-03-19T21:31:59.357Z,93.09
2023-03-19T21:35:25.865Z,93.76
2023-03-19T21:38:50.989Z,94.98
2023-03-19T21:42:22.594Z,95.05
2023-03-19T21:45:48.453Z,95.84
2023-03-19T21:49:12.666Z,96.35
2023-03-19T21:52:54.068Z,97.22
2023-03-19T21:56:25.382Z,97.62
2023-03-19T21:59:49.256Z,97.71
2023-03-19T22:03:21.856Z,97.82
2023-03-19T22:06:46.853Z,98.49
2023-03-19T22:10:11.436Z,98.65
2023-03-19T22:13:35.379Z,99.34
2023-03-19T22:17:00.529Z,99.50
2023-03-19T22:20:26.448Z,99.78
2023-03-19T22:23:52.082Z,100.00
2023-03-19T22:27:19.042Z,100.00
2023-03-19T22:30:43.463Z,100.00
2023-03-19T22:34:07.511Z,100.00
2023-03-19T22:37:31.611Z,100.00
2023-03-19T22:40:57.590Z,100.00
2023-03-19T22:44:29.197Z,100.00
2023-03-19T22:47:54.048Z,100.00
2023-03-19T22:51:24.025Z,100.00
2023-03-19T22:54:47.950Z,100.00
2023-03-19T22:58:11.987Z,100.00
2023-03-19T23:01:39.213Z,100.00
2023-03-19T23:05:03.299Z,100.00
2023-03-19T23:08:27.795Z,100.00
2023-03-19T23:11:52.799Z,100.00
2023-03-19T23:15:16.889Z,100.00
2023-03-19T23:18:40.705Z,100.00
2023-03-19T23:22:07.616Z,100.00
2023-03-19T23:25:31.704Z,100.00
2023-03-19T23:28:58.569Z,100.00
2023-03-19T23:32:23.050Z,100.00
2023-03-19T23:35:47.574Z,100.00
2023-03-19T23:39:11.630Z,100.00
2023-03-19T23:42:36.185Z,100.00
2023-03-19T23:46:00.331Z,100.00
2023-03-19T23:49:32.376Z,100.00
2023-03-19T23:52:57.645Z,100.00
2023-03-19T23:56:28.325Z,100.00
2023-03-19T23:59:53.542Z,100.00
